Aeroporto :
LOGIN :

Iscrizione | Disclaimer

   EN    FR    IT 

 










Sommario :    VFR   VFR Marginale   IFR   IFR Intensivo   IFR Molto Intensivo
Visibilità : 
Base nubi : 
>= 8 km
>= 3000ft
5 / 8 km
1000 / 3000 ft
1500m / 5 km
500 / 1000 ft
800 / 1500m
200 / 500 ft
< 800m
< 200 ft
Simboli :   Temporali  Nebbia  Neve Forte  Precipitazioni Forti  Vento > 20 kt
SIGMETs :   Varie  Temporali  Ghiacco  Turbolenza  Onda orograficha  Ceneri Vulcaniche






- Altitudine del aeroporto : 37 ft


EHVL - Vlieland Heliport

ULTIMO METAR :
  • 231855Z AUTO 19014KT 9999 OVC150 07/04 Q0990 BLU

METARs OBSOLETI :
  • 231825Z AUTO 20014KT 9999 OVC140 07/04 Q0990 BLU
  • 231755Z AUTO 20015KT 9999 FEW023 SCT045 OVC170 07/04 Q0989 BLU
  • 231725Z AUTO 22019KT 9999 FEW015CB OVC190 07/04 Q0989 BLU
  • 231712Z AUTO 21015KT 9999 FEW016 SCT022 OVC210 07/04 Q0989 WHT
  • 231655Z AUTO 21013KT 9999 SCT019 BKN022 BKN026 07/04 Q0989 WHT
  • 231625Z AUTO 22018KT 9999 FEW022 BKN240 07/04 Q0989 BLU
  • 231555Z AUTO 23019KT 9999 FEW022 SCT029 08/04 Q0988 BLU
  • 231525Z AUTO 24020KT 9999 SCT019 BKN023 OVC230 08/04 Q0988 WHT
  • 231505Z AUTO 24021KT 9999 SCT021 BKN024 08/04 Q0988 WHT
  • 231504Z AUTO 24021KT 9999 SCT021 BKN025 08/03 Q0988 WHT
  • 231425Z AUTO 24020KT 9999 FEW028 SCT031 08/03 Q0987 BLU
  • 231355Z AUTO 24025KT 9999 FEW020 SCT039 08/04 Q0987 BLU

Previsioni scadute.



MetMap, La meteo Aeronautica in un colpo d'occhio ! - Copyright ORBIFLY Dicembre 2007 - Disclaimer

ORBIFLY MET'MAP TEAM :

Programmazione e sviluppo : Alexandra Zaïnal
Concezione : Baudouin d'Aumeries
Supporto tecnico e logistico : Manuel Goepfert
Aiuto : Marc-Olivier Méhu
Aiuto per la traduzione : Arnaldo La Scala




FONTI E CREDITI :

   NOAA